createdAt,value
2018-09-04T00:02:19.154Z,17.56
2018-09-04T00:04:48.071Z,17.43
2018-09-04T00:07:19.869Z,17.41
2018-09-04T00:09:49.729Z,17.40
2018-09-04T00:12:18.778Z,17.31
2018-09-04T00:14:47.756Z,17.22
2018-09-04T00:17:16.680Z,17.23
2018-09-04T00:19:45.641Z,17.39
2018-09-04T00:22:14.619Z,17.51
2018-09-04T00:24:43.586Z,17.47
2018-09-04T00:27:12.583Z,17.49
2018-09-04T00:29:41.451Z,17.54
2018-09-04T00:32:10.263Z,17.59
2018-09-04T00:34:39.176Z,17.64
2018-09-04T00:37:08.096Z,17.69
2018-09-04T00:39:36.930Z,17.64
2018-09-04T00:42:06.303Z,17.61
2018-09-04T00:44:35.226Z,17.60
2018-09-04T00:47:04.084Z,17.69
2018-09-04T00:49:32.804Z,17.73
2018-09-04T00:52:01.486Z,17.72
2018-09-04T00:54:30.159Z,17.69
2018-09-04T00:56:58.806Z,17.74
2018-09-04T00:59:27.485Z,17.74
2018-09-04T01:01:56.736Z,17.71
2018-09-04T01:04:25.446Z,17.69
2018-09-04T01:06:54.194Z,17.70
2018-09-04T01:09:23.255Z,17.71
2018-09-04T01:11:52.196Z,17.63
2018-09-04T01:14:21.036Z,17.53
2018-09-04T01:16:50.243Z,17.50
2018-09-04T01:19:18.994Z,17.50
2018-09-04T01:21:47.676Z,17.51
2018-09-04T01:24:16.426Z,17.49
2018-09-04T01:26:45.166Z,17.43
2018-09-04T01:29:13.993Z,17.38
2018-09-04T01:31:42.807Z,17.36
2018-09-04T01:34:11.606Z,17.29
2018-09-04T01:36:40.346Z,17.28
2018-09-04T01:39:09.135Z,17.25
2018-09-04T01:41:37.826Z,17.23
2018-09-04T01:44:06.584Z,17.63
2018-09-04T01:46:35.264Z,17.50
2018-09-04T01:49:03.946Z,17.50
2018-09-04T01:51:32.666Z,17.53
2018-09-04T01:54:01.344Z,17.56
2018-09-04T01:56:30.044Z,17.62
2018-09-04T01:58:58.854Z,17.62
2018-09-04T02:01:27.670Z,17.57
2018-09-04T02:03:56.501Z,17.51
2018-09-04T02:06:25.311Z,17.54
2018-09-04T02:08:54.079Z,17.58
2018-09-04T02:11:22.723Z,17.67
2018-09-04T02:13:51.383Z,17.49
2018-09-04T02:16:20.116Z,17.39
2018-09-04T02:18:48.786Z,17.31
2018-09-04T02:21:17.531Z,17.24
2018-09-04T02:23:46.191Z,17.21
2018-09-04T02:26:14.936Z,17.19
2018-09-04T02:28:43.711Z,17.22
2018-09-04T02:31:12.467Z,17.26
2018-09-04T02:33:41.099Z,17.31
2018-09-04T02:36:09.761Z,17.35
2018-09-04T02:38:38.414Z,17.39
2018-09-04T02:41:07.431Z,17.42
2018-09-04T02:43:36.194Z,17.48
2018-09-04T02:46:05.306Z,17.54
2018-09-04T02:48:34.026Z,17.62
2018-09-04T02:51:02.878Z,17.65
2018-09-04T02:53:31.554Z,17.58
2018-09-04T02:56:00.224Z,17.61
2018-09-04T02:58:29.004Z,17.51
2018-09-04T03:00:57.759Z,17.46
2018-09-04T03:03:26.673Z,17.44
2018-09-04T03:05:55.473Z,17.52
2018-09-04T03:08:24.288Z,17.38
2018-09-04T03:10:53.054Z,17.23
2018-09-04T03:13:21.858Z,17.22
2018-09-04T03:15:50.591Z,17.41
2018-09-04T03:18:19.376Z,17.59
2018-09-04T03:20:48.118Z,17.65
2018-09-04T03:23:17.095Z,17.53
2018-09-04T03:25:45.845Z,17.48
2018-09-04T03:28:14.551Z,17.44
2018-09-04T03:30:43.376Z,17.44
2018-09-04T03:33:12.121Z,17.44
2018-09-04T03:35:40.891Z,17.51
2018-09-04T03:38:09.698Z,17.53
2018-09-04T03:40:38.483Z,17.48
2018-09-04T03:43:07.714Z,17.47
2018-09-04T03:45:36.506Z,17.52
2018-09-04T03:48:06.261Z,17.51
2018-09-04T03:50:35.099Z,17.61
2018-09-04T03:53:03.856Z,17.65
2018-09-04T03:55:32.728Z,17.50
2018-09-04T03:58:01.597Z,17.45
2018-09-04T04:00:30.451Z,17.38
2018-09-04T04:02:59.171Z,17.32
2018-09-04T04:05:27.824Z,17.28
2018-09-04T04:07:56.567Z,17.40
2018-09-04T04:10:25.263Z,17.44
2018-09-04T04:12:54.056Z,17.39
2018-09-04T04:15:22.858Z,17.30
2018-09-04T04:17:51.626Z,17.17
2018-09-04T04:20:20.441Z,17.11
2018-09-04T04:22:49.275Z,17.00
2018-09-04T04:25:17.984Z,16.92
2018-09-04T04:27:46.813Z,16.85
2018-09-04T04:30:15.545Z,16.93
2018-09-04T04:32:44.463Z,16.87
2018-09-04T04:35:13.419Z,16.76
2018-09-04T04:37:42.191Z,16.69
2018-09-04T04:40:11.046Z,16.63
2018-09-04T04:42:39.837Z,16.64
2018-09-04T04:45:08.640Z,16.66
2018-09-04T04:47:42.860Z,16.59
2018-09-04T04:50:11.479Z,16.52
2018-09-04T04:52:40.443Z,16.64
2018-09-04T04:55:09.165Z,16.62
2018-09-04T04:57:37.840Z,16.56
2018-09-04T05:00:07.199Z,16.53
2018-09-04T05:02:36.126Z,16.54
2018-09-04T05:05:05.046Z,16.57
2018-09-04T05:07:33.930Z,16.78
2018-09-04T05:10:02.906Z,16.95
2018-09-04T05:12:31.803Z,17.19
2018-09-04T05:15:00.540Z,17.39
2018-09-04T05:17:29.288Z,17.41
2018-09-04T05:19:58.148Z,17.41
2018-09-04T05:22:26.844Z,17.57
2018-09-04T05:24:55.578Z,17.62
2018-09-04T05:27:24.370Z,17.57
2018-09-04T05:29:53.352Z,17.41
2018-09-04T05:32:29.326Z,17.37
2018-09-04T05:34:58.095Z,17.36
2018-09-04T05:37:26.803Z,17.28
2018-09-04T05:39:55.478Z,17.32
2018-09-04T05:42:29.096Z,17.30
2018-09-04T05:44:57.785Z,17.35
2018-09-04T05:47:31.015Z,17.43
2018-09-04T05:49:59.943Z,17.41
2018-09-04T05:52:28.996Z,17.53
2018-09-04T05:54:57.950Z,17.62
2018-09-04T05:57:26.742Z,17.67
2018-09-04T05:59:55.548Z,17.82
2018-09-04T06:02:24.447Z,17.94
2018-09-04T06:04:53.140Z,18.00
2018-09-04T06:07:21.825Z,18.04
2018-09-04T06:09:50.591Z,18.09
2018-09-04T06:12:19.340Z,18.34
2018-09-04T06:14:48.080Z,18.50
2018-09-04T06:17:16.790Z,18.54
2018-09-04T06:19:45.556Z,18.53
2018-09-04T06:22:14.288Z,18.57
2018-09-04T06:24:43.075Z,18.68
2018-09-04T06:27:11.993Z,18.86
2018-09-04T06:29:40.833Z,19.42
2018-09-04T06:32:11.068Z,19.64
2018-09-04T06:34:39.883Z,20.18
2018-09-04T06:37:08.687Z,20.54
2018-09-04T06:39:37.516Z,20.69
2018-09-04T06:42:06.496Z,20.83
2018-09-04T06:44:35.393Z,20.94
2018-09-04T06:47:04.308Z,21.25
2018-09-04T06:49:33.045Z,21.74
2018-09-04T06:52:02.638Z,21.99
2018-09-04T06:54:31.388Z,22.24
2018-09-04T06:57:00.723Z,22.19
2018-09-04T06:59:29.458Z,21.92
2018-09-04T07:01:58.286Z,21.97
2018-09-04T07:04:26.928Z,22.17
2018-09-04T07:06:55.603Z,22.66
2018-09-04T07:09:24.196Z,22.90
2018-09-04T07:11:52.919Z,23.02
2018-09-04T07:14:21.545Z,24.06
2018-09-04T07:16:51.289Z,23.60
2018-09-04T07:19:21.292Z,23.68
2018-09-04T07:21:50.317Z,23.97
2018-09-04T07:24:19.214Z,23.94
2018-09-04T07:26:47.934Z,23.95
2018-09-04T07:29:16.724Z,24.09
2018-09-04T07:31:45.456Z,24.53
2018-09-04T07:34:14.210Z,24.15
2018-09-04T07:36:42.973Z,24.22
2018-09-04T07:39:12.161Z,24.97
2018-09-04T07:41:41.175Z,24.96
2018-09-04T07:44:09.808Z,25.13
2018-09-04T07:46:38.418Z,25.63
2018-09-04T07:49:07.103Z,25.63
2018-09-04T07:51:35.811Z,25.84
2018-09-04T07:54:04.653Z,25.59
2018-09-04T07:56:33.513Z,25.48
2018-09-04T07:59:02.266Z,25.21
2018-09-04T08:01:30.911Z,25.30
2018-09-04T08:03:59.559Z,25.66
2018-09-04T08:06:28.258Z,25.66
2018-09-04T08:08:56.956Z,25.69
2018-09-04T08:11:25.705Z,25.49
2018-09-04T08:13:54.385Z,25.51
2018-09-04T08:16:23.053Z,25.46
2018-09-04T08:18:51.792Z,25.89
2018-09-04T08:21:20.574Z,26.22
2018-09-04T08:23:49.310Z,26.08
2018-09-04T08:26:18.109Z,26.17
2018-09-04T08:28:46.893Z,26.09
2018-09-04T08:31:15.701Z,25.96
2018-09-04T08:33:44.459Z,26.62
2018-09-04T08:36:13.258Z,26.46
2018-09-04T08:38:47.506Z,26.77
2018-09-04T08:41:16.293Z,26.86
2018-09-04T08:43:44.962Z,27.10
2018-09-04T08:46:13.615Z,27.39
2018-09-04T08:48:42.368Z,27.63
2018-09-04T08:51:11.034Z,27.61
2018-09-04T08:53:39.735Z,26.99
2018-09-04T08:56:08.386Z,27.30
2018-09-04T08:58:37.166Z,27.48
2018-09-04T09:01:06.043Z,28.35
2018-09-04T09:03:34.938Z,27.80
2018-09-04T09:06:03.694Z,28.35
2018-09-04T09:08:32.473Z,28.34
2018-09-04T09:11:01.238Z,28.58
2018-09-04T09:13:29.993Z,28.76
2018-09-04T09:15:59.289Z,29.00
2018-09-04T09:18:28.034Z,28.53
2018-09-04T09:20:56.798Z,28.55
2018-09-04T09:23:25.573Z,28.17
2018-09-04T09:25:54.407Z,27.90
2018-09-04T09:28:23.154Z,27.66
2018-09-04T09:30:51.852Z,27.71
2018-09-04T09:33:20.491Z,27.85
2018-09-04T09:35:49.188Z,28.28
2018-09-04T09:38:17.927Z,28.98
2018-09-04T09:40:46.634Z,29.48
2018-09-04T09:43:15.303Z,29.73
2018-09-04T09:45:43.893Z,30.38
2018-09-04T09:48:12.547Z,30.86
2018-09-04T09:50:41.235Z,30.79
2018-09-04T09:53:09.887Z,30.71
2018-09-04T09:55:38.524Z,29.58
2018-09-04T09:58:07.189Z,28.84
2018-09-04T10:00:41.478Z,28.66
2018-09-04T10:03:15.671Z,28.75
2018-09-04T10:05:44.334Z,28.82
2018-09-04T10:08:13.040Z,29.13
2018-09-04T10:10:41.783Z,29.08
2018-09-04T10:13:10.416Z,29.49
2018-09-04T10:15:39.147Z,29.75
2018-09-04T10:18:07.932Z,29.70
2018-09-04T10:20:36.651Z,30.01
2018-09-04T10:23:05.584Z,30.19
2018-09-04T10:25:34.379Z,28.90
2018-09-04T10:28:03.228Z,27.74
2018-09-04T10:30:32.354Z,27.69
2018-09-04T10:33:01.199Z,27.99
2018-09-04T10:35:29.913Z,27.99
2018-09-04T10:37:58.633Z,28.10
2018-09-04T10:40:32.914Z,28.11
2018-09-04T10:43:01.586Z,28.43
2018-09-04T10:45:35.883Z,28.25
2018-09-04T10:48:04.801Z,28.25
2018-09-04T10:50:34.583Z,28.26
2018-09-04T10:53:03.256Z,28.31
2018-09-04T10:55:32.138Z,28.46
2018-09-04T10:58:00.941Z,28.35
2018-09-04T11:00:29.713Z,27.88
2018-09-04T11:02:58.619Z,27.76
2018-09-04T11:05:27.499Z,28.13
2018-09-04T11:07:56.253Z,28.21
2018-09-04T11:10:25.037Z,28.08
2018-09-04T11:12:53.922Z,27.63
2018-09-04T11:15:22.803Z,28.00
2018-09-04T11:17:51.586Z,28.64
2018-09-04T11:20:20.539Z,28.98
2018-09-04T11:22:50.264Z,29.21
2018-09-04T11:25:19.032Z,29.38
2018-09-04T11:27:47.751Z,29.84
2018-09-04T11:30:16.541Z,29.98
2018-09-04T11:32:45.659Z,29.91
2018-09-04T11:35:14.564Z,29.75
2018-09-04T11:37:43.840Z,30.16
2018-09-04T11:40:16.104Z,30.98
2018-09-04T11:42:44.930Z,30.45
2018-09-04T11:45:14.046Z,29.16
2018-09-04T11:47:42.729Z,28.42
2018-09-04T11:50:11.991Z,28.64
2018-09-04T11:52:40.741Z,28.30
2018-09-04T11:55:10.174Z,27.66
2018-09-04T11:57:38.942Z,27.26
2018-09-04T12:00:10.745Z,27.04
2018-09-04T12:02:40.649Z,26.80
2018-09-04T12:05:09.832Z,26.73
2018-09-04T12:07:38.680Z,26.42
2018-09-04T12:10:08.024Z,26.29
2018-09-04T12:12:37.862Z,26.31
2018-09-04T12:15:06.619Z,26.24
2018-09-04T12:17:35.427Z,26.32
2018-09-04T12:21:10.436Z,26.49
2018-09-04T12:23:39.976Z,27.03
2018-09-04T12:26:09.807Z,27.18
2018-09-04T12:28:38.518Z,27.37
2018-09-04T12:31:07.887Z,27.21
2018-09-04T12:33:36.542Z,27.39
2018-09-04T12:36:06.058Z,27.50
2018-09-04T12:38:39.558Z,27.63
2018-09-04T12:41:16.189Z,27.63
2018-09-04T12:43:44.991Z,27.66
2018-09-04T12:46:13.799Z,27.65
2018-09-04T12:48:48.232Z,27.68
2018-09-04T12:51:17.141Z,27.73
2018-09-04T12:53:45.999Z,27.55
2018-09-04T12:56:15.042Z,27.42
2018-09-04T12:58:43.831Z,27.23
2018-09-04T13:01:12.980Z,27.10
2018-09-04T13:03:41.734Z,27.06
2018-09-04T13:06:10.627Z,26.96
2018-09-04T13:08:39.362Z,26.90
2018-09-04T13:11:08.739Z,26.93
2018-09-04T13:13:38.500Z,26.86
2018-09-04T13:16:07.355Z,26.74
2018-09-04T13:18:36.124Z,26.50
2018-09-04T13:21:05.326Z,26.19
2018-09-04T13:23:35.025Z,25.99
2018-09-04T13:26:04.714Z,25.81
2018-09-04T13:28:34.179Z,25.50
2018-09-04T13:31:02.986Z,25.31
2018-09-04T13:33:31.599Z,25.22
2018-09-04T13:36:00.356Z,25.20
2018-09-04T13:38:29.281Z,25.15
2018-09-04T13:41:03.526Z,25.05
2018-09-04T13:43:32.350Z,24.98
2018-09-04T13:46:01.286Z,24.69
2018-09-04T13:48:32.492Z,24.56
2018-09-04T13:51:02.516Z,24.47
2018-09-04T13:53:31.954Z,24.40
2018-09-04T13:56:00.775Z,24.43
2018-09-04T13:58:29.627Z,24.67
2018-09-04T14:00:58.482Z,24.53
2018-09-04T14:03:27.272Z,24.58
2018-09-04T14:05:55.980Z,24.52
2018-09-04T14:08:24.761Z,24.31
2018-09-04T14:10:53.399Z,24.28
2018-09-04T14:13:22.162Z,24.45
2018-09-04T14:15:54.669Z,24.16
2018-09-04T14:18:23.459Z,24.13
2018-09-04T14:20:52.462Z,24.12
2018-09-04T14:23:21.666Z,24.02
2018-09-04T14:25:51.391Z,24.11
2018-09-04T14:28:40.975Z,23.96
2018-09-04T14:30:49.092Z,24.05
2018-09-04T14:33:17.793Z,24.00
2018-09-04T14:35:47.157Z,23.93
2018-09-04T14:38:15.926Z,23.96
2018-09-04T14:40:45.344Z,24.06
2018-09-04T14:43:15.527Z,24.17
2018-09-04T14:45:44.326Z,24.23
2018-09-04T14:48:13.045Z,24.32
2018-09-04T14:50:41.792Z,24.45
2018-09-04T14:53:10.492Z,24.55
2018-09-04T14:55:39.275Z,24.52
2018-09-04T14:58:08.035Z,24.63
2018-09-04T15:00:37.599Z,25.12
2018-09-04T15:03:06.437Z,25.34
2018-09-04T15:05:35.159Z,25.42
2018-09-04T15:08:03.889Z,25.37
2018-09-04T15:10:32.759Z,25.34
2018-09-04T15:13:01.500Z,25.38
2018-09-04T15:15:30.381Z,25.45
2018-09-04T15:17:59.374Z,25.52
2018-09-04T15:20:28.815Z,25.37
2018-09-04T15:22:57.614Z,25.43
2018-09-04T15:25:26.401Z,24.99
2018-09-04T15:27:55.329Z,24.81
2018-09-04T15:30:24.444Z,24.68
2018-09-04T15:32:53.569Z,24.68
2018-09-04T15:35:22.648Z,24.58
2018-09-04T15:37:51.791Z,24.57
2018-09-04T15:40:21.212Z,24.52
2018-09-04T15:42:50.385Z,24.29
2018-09-04T15:45:19.700Z,24.52
2018-09-04T15:47:48.968Z,24.39
2018-09-04T15:50:18.040Z,24.22
2018-09-04T15:52:46.942Z,24.17
2018-09-04T15:55:15.948Z,24.09
2018-09-04T15:57:45.170Z,23.57
2018-09-04T16:00:14.534Z,23.26
2018-09-04T16:02:43.922Z,22.98
2018-09-04T16:05:13.485Z,22.95
2018-09-04T16:07:42.533Z,22.87
2018-09-04T16:10:11.712Z,22.83
2018-09-04T16:12:40.620Z,22.86
2018-09-04T16:15:09.556Z,23.05
2018-09-04T16:17:38.541Z,23.21
2018-09-04T16:20:07.581Z,23.19
2018-09-04T16:22:36.739Z,23.36
2018-09-04T16:25:05.731Z,23.12
2018-09-04T16:27:34.451Z,23.06
2018-09-04T16:30:03.140Z,23.02
2018-09-04T16:32:31.834Z,23.18
2018-09-04T16:35:00.709Z,23.31
2018-09-04T16:37:29.473Z,23.56
2018-09-04T16:39:58.272Z,23.61
2018-09-04T16:42:27.109Z,23.69
2018-09-04T16:44:55.994Z,23.74
2018-09-04T16:47:24.827Z,23.69
2018-09-04T16:49:53.617Z,23.71
2018-09-04T16:52:22.530Z,23.55
2018-09-04T16:54:51.439Z,23.47
2018-09-04T16:57:20.404Z,23.31
2018-09-04T16:59:49.392Z,23.17
2018-09-04T17:02:18.314Z,23.13
2018-09-04T17:04:47.919Z,23.13
2018-09-04T17:07:16.641Z,23.02
2018-09-04T17:09:45.425Z,22.90
2018-09-04T17:12:14.323Z,22.85
2018-09-04T17:14:43.154Z,22.83
2018-09-04T17:17:11.959Z,22.65
2018-09-04T17:19:40.647Z,22.54
2018-09-04T17:22:09.459Z,22.46
2018-09-04T17:24:38.269Z,22.34
2018-09-04T17:27:07.274Z,22.29
2018-09-04T17:29:36.130Z,22.25
2018-09-04T17:32:04.909Z,22.67
2018-09-04T17:34:34.592Z,22.58
2018-09-04T17:37:03.351Z,22.62
2018-09-04T17:39:32.074Z,22.60
2018-09-04T17:42:00.897Z,22.53
2018-09-04T17:44:29.954Z,22.23
2018-09-04T17:46:58.929Z,21.96
2018-09-04T17:49:27.824Z,21.83
2018-09-04T17:51:56.757Z,21.59
2018-09-04T17:54:25.688Z,21.84
2018-09-04T17:56:54.603Z,22.15
2018-09-04T17:59:23.438Z,22.12
